sensor_id;sensor_type;location;lat;lon;timestamp;temperature;humidity
59075;DHT22;44860;53.020;6.738;2023-07-22T00:02:13;14.30;99.90
59075;DHT22;44860;53.020;6.738;2023-07-22T00:04:38;14.20;99.90
59075;DHT22;44860;53.020;6.738;2023-07-22T00:07:04;14.30;99.90
59075;DHT22;44860;53.020;6.738;2023-07-22T00:09:32;14.20;99.90
59075;DHT22;44860;53.020;6.738;2023-07-22T00:11:59;14.20;99.90
59075;DHT22;44860;53.020;6.738;2023-07-22T00:14:25;14.10;99.90
59075;DHT22;44860;53.020;6.738;2023-07-22T00:16:51;14.10;99.90
59075;DHT22;44860;53.020;6.738;2023-07-22T00:19:16;14.10;99.90
59075;DHT22;44860;53.020;6.738;2023-07-22T00:21:42;14.10;99.90
59075;DHT22;44860;53.020;6.738;2023-07-22T00:24:08;14.00;99.90
59075;DHT22;44860;53.020;6.738;2023-07-22T00:26:34;14.00;99.90
59075;DHT22;44860;53.020;6.738;2023-07-22T00:28:59;14.00;99.90
59075;DHT22;44860;53.020;6.738;2023-07-22T00:31:25;13.90;99.90
59075;DHT22;44860;53.020;6.738;2023-07-22T00:33:51;13.90;99.90
59075;DHT22;44860;53.020;6.738;2023-07-22T00:36:17;13.90;99.90
59075;DHT22;44860;53.020;6.738;2023-07-22T00:38:43;13.80;99.90
59075;DHT22;44860;53.020;6.738;2023-07-22T00:41:08;13.80;99.90
59075;DHT22;44860;53.020;6.738;2023-07-22T00:43:34;13.70;99.90
59075;DHT22;44860;53.020;6.738;2023-07-22T00:46:00;13.70;99.90
59075;DHT22;44860;53.020;6.738;2023-07-22T00:48:27;13.70;99.90
59075;DHT22;44860;53.020;6.738;2023-07-22T00:50:53;13.70;99.90
59075;DHT22;44860;53.020;6.738;2023-07-22T00:53:19;13.70;99.90
59075;DHT22;44860;53.020;6.738;2023-07-22T00:55:45;13.60;99.90
59075;DHT22;44860;53.020;6.738;2023-07-22T00:58:11;13.50;99.90
59075;DHT22;44860;53.020;6.738;2023-07-22T01:00:36;13.50;99.90
59075;DHT22;44860;53.020;6.738;2023-07-22T01:03:03;13.50;99.90
59075;DHT22;44860;53.020;6.738;2023-07-22T01:05:29;13.40;99.90
59075;DHT22;44860;53.020;6.738;2023-07-22T01:07:56;13.40;99.90
59075;DHT22;44860;53.020;6.738;2023-07-22T01:10:22;13.40;99.90
59075;DHT22;44860;53.020;6.738;2023-07-22T01:12:48;13.40;99.90
59075;DHT22;44860;53.020;6.738;2023-07-22T01:15:14;13.30;99.90
59075;DHT22;44860;53.020;6.738;2023-07-22T01:17:40;13.30;99.90
59075;DHT22;44860;53.020;6.738;2023-07-22T01:20:07;13.30;99.90
59075;DHT22;44860;53.020;6.738;2023-07-22T01:22:33;13.30;99.90
59075;DHT22;44860;53.020;6.738;2023-07-22T01:25:00;13.30;99.90
59075;DHT22;44860;53.020;6.738;2023-07-22T01:27:27;13.20;99.90
59075;DHT22;44860;53.020;6.738;2023-07-22T01:29:52;13.10;99.90
59075;DHT22;44860;53.020;6.738;2023-07-22T01:32:18;13.10;99.90
59075;DHT22;44860;53.020;6.738;2023-07-22T01:34:45;13.10;99.90
59075;DHT22;44860;53.020;6.738;2023-07-22T01:37:11;13.00;99.90
59075;DHT22;44860;53.020;6.738;2023-07-22T01:39:37;13.00;99.90
59075;DHT22;44860;53.020;6.738;2023-07-22T01:42:03;12.90;99.90
59075;DHT22;44860;53.020;6.738;2023-07-22T01:44:29;12.90;99.90
59075;DHT22;44860;53.020;6.738;2023-07-22T01:46:55;12.90;99.90
59075;DHT22;44860;53.020;6.738;2023-07-22T01:49:21;12.90;99.90
59075;DHT22;44860;53.020;6.738;2023-07-22T01:51:50;12.80;99.90
59075;DHT22;44860;53.020;6.738;2023-07-22T01:54:15;12.80;99.90
59075;DHT22;44860;53.020;6.738;2023-07-22T01:56:41;12.70;99.90
59075;DHT22;44860;53.020;6.738;2023-07-22T01:59:06;12.70;99.90
59075;DHT22;44860;53.020;6.738;2023-07-22T02:01:32;12.70;99.90
59075;DHT22;44860;53.020;6.738;2023-07-22T02:03:58;12.60;99.90
59075;DHT22;44860;53.020;6.738;2023-07-22T02:06:24;12.60;99.90
59075;DHT22;44860;53.020;6.738;2023-07-22T02:08:50;12.50;99.90
59075;DHT22;44860;53.020;6.738;2023-07-22T02:11:17;12.50;99.90
59075;DHT22;44860;53.020;6.738;2023-07-22T02:13:43;12.50;99.90
59075;DHT22;44860;53.020;6.738;2023-07-22T02:16:08;12.40;99.90
59075;DHT22;44860;53.020;6.738;2023-07-22T02:18:37;12.40;99.90
59075;DHT22;44860;53.020;6.738;2023-07-22T02:21:03;12.30;99.90
59075;DHT22;44860;53.020;6.738;2023-07-22T02:23:28;12.30;99.90
59075;DHT22;44860;53.020;6.738;2023-07-22T02:25:54;12.30;99.90
59075;DHT22;44860;53.020;6.738;2023-07-22T02:28:21;12.20;99.90
59075;DHT22;44860;53.020;6.738;2023-07-22T02:30:51;12.20;99.90
59075;DHT22;44860;53.020;6.738;2023-07-22T02:33:18;12.10;99.90
59075;DHT22;44860;53.020;6.738;2023-07-22T02:35:44;12.10;99.90
59075;DHT22;44860;53.020;6.738;2023-07-22T02:38:10;12.10;99.90
59075;DHT22;44860;53.020;6.738;2023-07-22T02:40:39;12.10;99.90
59075;DHT22;44860;53.020;6.738;2023-07-22T02:43:04;12.10;99.90
59075;DHT22;44860;53.020;6.738;2023-07-22T02:45:32;12.10;99.90
59075;DHT22;44860;53.020;6.738;2023-07-22T02:47:58;12.10;99.90
59075;DHT22;44860;53.020;6.738;2023-07-22T02:50:25;12.10;99.90
59075;DHT22;44860;53.020;6.738;2023-07-22T02:52:51;12.10;99.90
59075;DHT22;44860;53.020;6.738;2023-07-22T02:55:17;12.10;99.90
59075;DHT22;44860;53.020;6.738;2023-07-22T02:57:47;12.10;99.90
59075;DHT22;44860;53.020;6.738;2023-07-22T03:00:18;12.10;99.90
59075;DHT22;44860;53.020;6.738;2023-07-22T03:02:51;12.10;99.90
59075;DHT22;44860;53.020;6.738;2023-07-22T03:05:29;12.00;99.90
59075;DHT22;44860;53.020;6.738;2023-07-22T03:07:55;12.00;99.90
59075;DHT22;44860;53.020;6.738;2023-07-22T03:10:21;12.00;99.90
59075;DHT22;44860;53.020;6.738;2023-07-22T03:12:47;12.00;99.90
59075;DHT22;44860;53.020;6.738;2023-07-22T03:15:13;12.00;99.90
59075;DHT22;44860;53.020;6.738;2023-07-22T03:17:39;11.90;99.90
59075;DHT22;44860;53.020;6.738;2023-07-22T03:20:09;11.90;99.90
59075;DHT22;44860;53.020;6.738;2023-07-22T03:22:43;11.90;99.90
59075;DHT22;44860;53.020;6.738;2023-07-22T03:25:09;11.90;99.90
59075;DHT22;44860;53.020;6.738;2023-07-22T03:27:36;11.90;99.90
59075;DHT22;44860;53.020;6.738;2023-07-22T03:30:03;11.80;99.90
59075;DHT22;44860;53.020;6.738;2023-07-22T03:32:32;11.80;99.90
59075;DHT22;44860;53.020;6.738;2023-07-22T03:34:57;11.90;99.90
59075;DHT22;44860;53.020;6.738;2023-07-22T03:37:23;11.80;99.90
59075;DHT22;44860;53.020;6.738;2023-07-22T03:39:49;11.80;99.90
59075;DHT22;44860;53.020;6.738;2023-07-22T03:42:16;11.80;99.90
59075;DHT22;44860;53.020;6.738;2023-07-22T03:44:41;11.80;99.90
59075;DHT22;44860;53.020;6.738;2023-07-22T03:47:07;11.90;99.90
59075;DHT22;44860;53.020;6.738;2023-07-22T03:49:33;12.00;99.90
59075;DHT22;44860;53.020;6.738;2023-07-22T03:51:59;12.00;99.90
59075;DHT22;44860;53.020;6.738;2023-07-22T03:54:24;12.10;99.90
59075;DHT22;44860;53.020;6.738;2023-07-22T03:56:50;12.10;99.90
59075;DHT22;44860;53.020;6.738;2023-07-22T03:59:15;12.10;99.90
59075;DHT22;44860;53.020;6.738;2023-07-22T04:01:41;12.10;99.90
59075;DHT22;44860;53.020;6.738;2023-07-22T04:04:07;12.20;99.90
59075;DHT22;44860;53.020;6.738;2023-07-22T04:06:32;12.20;99.90
59075;DHT22;44860;53.020;6.738;2023-07-22T04:08:58;12.20;99.90
59075;DHT22;44860;53.020;6.738;2023-07-22T04:11:26;12.30;99.90
59075;DHT22;44860;53.020;6.738;2023-07-22T04:13:52;12.30;99.90
59075;DHT22;44860;53.020;6.738;2023-07-22T04:16:18;12.30;99.90
59075;DHT22;44860;53.020;6.738;2023-07-22T04:18:44;12.30;99.90
59075;DHT22;44860;53.020;6.738;2023-07-22T04:21:09;12.30;99.90
59075;DHT22;44860;53.020;6.738;2023-07-22T04:23:35;12.40;99.90
59075;DHT22;44860;53.020;6.738;2023-07-22T04:26:03;12.40;99.90
59075;DHT22;44860;53.020;6.738;2023-07-22T04:28:34;12.40;99.90
59075;DHT22;44860;53.020;6.738;2023-07-22T04:31:00;12.50;99.90
59075;DHT22;44860;53.020;6.738;2023-07-22T04:33:26;12.50;99.90
59075;DHT22;44860;53.020;6.738;2023-07-22T04:35:55;12.50;99.90
59075;DHT22;44860;53.020;6.738;2023-07-22T04:38:21;12.60;99.90
59075;DHT22;44860;53.020;6.738;2023-07-22T04:40:47;12.60;99.90
59075;DHT22;44860;53.020;6.738;2023-07-22T04:43:12;12.60;99.90
59075;DHT22;44860;53.020;6.738;2023-07-22T04:45:38;12.60;99.90
59075;DHT22;44860;53.020;6.738;2023-07-22T04:48:06;12.60;99.90
59075;DHT22;44860;53.020;6.738;2023-07-22T04:50:32;12.70;99.90
59075;DHT22;44860;53.020;6.738;2023-07-22T04:52:57;12.70;99.90
59075;DHT22;44860;53.020;6.738;2023-07-22T04:55:23;12.80;99.90
59075;DHT22;44860;53.020;6.738;2023-07-22T04:57:49;12.80;99.90
59075;DHT22;44860;53.020;6.738;2023-07-22T05:00:17;12.80;99.90
59075;DHT22;44860;53.020;6.738;2023-07-22T05:02:45;12.80;99.90
59075;DHT22;44860;53.020;6.738;2023-07-22T05:05:12;12.90;99.90
59075;DHT22;44860;53.020;6.738;2023-07-22T05:07:38;12.90;99.90
59075;DHT22;44860;53.020;6.738;2023-07-22T05:10:05;12.90;99.90
59075;DHT22;44860;53.020;6.738;2023-07-22T05:12:32;13.00;99.90
59075;DHT22;44860;53.020;6.738;2023-07-22T05:14:58;13.00;99.90
59075;DHT22;44860;53.020;6.738;2023-07-22T05:17:23;13.00;99.90
59075;DHT22;44860;53.020;6.738;2023-07-22T05:19:51;13.10;99.90
59075;DHT22;44860;53.020;6.738;2023-07-22T05:22:16;13.10;99.90
59075;DHT22;44860;53.020;6.738;2023-07-22T05:24:42;13.10;99.90
59075;DHT22;44860;53.020;6.738;2023-07-22T05:27:08;13.20;99.90
59075;DHT22;44860;53.020;6.738;2023-07-22T05:29:33;13.20;99.90
59075;DHT22;44860;53.020;6.738;2023-07-22T05:31:59;13.20;99.90
59075;DHT22;44860;53.020;6.738;2023-07-22T05:34:25;13.20;99.90
59075;DHT22;44860;53.020;6.738;2023-07-22T05:36:50;13.30;99.90
59075;DHT22;44860;53.020;6.738;2023-07-22T05:39:16;13.30;99.90
59075;DHT22;44860;53.020;6.738;2023-07-22T05:41:44;13.30;99.90
59075;DHT22;44860;53.020;6.738;2023-07-22T05:44:09;13.40;99.90
59075;DHT22;44860;53.020;6.738;2023-07-22T05:46:35;13.40;99.90
59075;DHT22;44860;53.020;6.738;2023-07-22T05:49:01;13.40;99.90
59075;DHT22;44860;53.020;6.738;2023-07-22T05:51:26;13.50;99.90
59075;DHT22;44860;53.020;6.738;2023-07-22T05:53:52;13.50;99.90
59075;DHT22;44860;53.020;6.738;2023-07-22T05:56:18;13.60;99.90
59075;DHT22;44860;53.020;6.738;2023-07-22T05:58:43;13.60;99.90
59075;DHT22;44860;53.020;6.738;2023-07-22T06:01:09;13.60;99.90
59075;DHT22;44860;53.020;6.738;2023-07-22T06:03:35;13.70;99.90
59075;DHT22;44860;53.020;6.738;2023-07-22T06:06:01;13.70;99.90
59075;DHT22;44860;53.020;6.738;2023-07-22T06:08:27;13.70;99.90
59075;DHT22;44860;53.020;6.738;2023-07-22T06:10:53;13.80;99.90
59075;DHT22;44860;53.020;6.738;2023-07-22T06:13:18;13.80;99.90
59075;DHT22;44860;53.020;6.738;2023-07-22T06:15:44;13.90;99.90
59075;DHT22;44860;53.020;6.738;2023-07-22T06:18:10;13.90;99.90
59075;DHT22;44860;53.020;6.738;2023-07-22T06:20:36;13.90;99.90
59075;DHT22;44860;53.020;6.738;2023-07-22T06:23:04;14.00;99.90
59075;DHT22;44860;53.020;6.738;2023-07-22T06:25:30;14.10;99.90
59075;DHT22;44860;53.020;6.738;2023-07-22T06:27:56;14.10;99.90
59075;DHT22;44860;53.020;6.738;2023-07-22T06:30:22;14.10;99.90
59075;DHT22;44860;53.020;6.738;2023-07-22T06:32:48;14.20;99.90
59075;DHT22;44860;53.020;6.738;2023-07-22T06:35:13;14.30;99.90
59075;DHT22;44860;53.020;6.738;2023-07-22T06:37:39;14.30;99.90
59075;DHT22;44860;53.020;6.738;2023-07-22T06:40:06;14.40;99.90
59075;DHT22;44860;53.020;6.738;2023-07-22T06:42:32;14.40;99.90
59075;DHT22;44860;53.020;6.738;2023-07-22T06:44:58;14.50;99.90
59075;DHT22;44860;53.020;6.738;2023-07-22T06:47:23;14.60;99.90
59075;DHT22;44860;53.020;6.738;2023-07-22T06:49:49;14.60;99.90
59075;DHT22;44860;53.020;6.738;2023-07-22T06:52:16;14.70;99.90
59075;DHT22;44860;53.020;6.738;2023-07-22T06:54:42;14.70;99.90
59075;DHT22;44860;53.020;6.738;2023-07-22T06:57:08;14.80;99.90
59075;DHT22;44860;53.020;6.738;2023-07-22T06:59:33;14.80;99.90
59075;DHT22;44860;53.020;6.738;2023-07-22T07:01:59;14.90;99.90
59075;DHT22;44860;53.020;6.738;2023-07-22T07:04:26;14.90;99.90
59075;DHT22;44860;53.020;6.738;2023-07-22T07:06:51;15.00;99.90
59075;DHT22;44860;53.020;6.738;2023-07-22T07:09:17;15.00;99.90
59075;DHT22;44860;53.020;6.738;2023-07-22T07:11:43;15.10;99.90
59075;DHT22;44860;53.020;6.738;2023-07-22T07:14:09;15.20;99.90
59075;DHT22;44860;53.020;6.738;2023-07-22T07:16:34;15.20;99.90
59075;DHT22;44860;53.020;6.738;2023-07-22T07:19:01;15.30;99.90
59075;DHT22;44860;53.020;6.738;2023-07-22T07:21:27;15.30;99.90
59075;DHT22;44860;53.020;6.738;2023-07-22T07:23:54;15.40;99.90
59075;DHT22;44860;53.020;6.738;2023-07-22T07:26:20;15.50;99.90
59075;DHT22;44860;53.020;6.738;2023-07-22T07:28:47;15.50;99.90
59075;DHT22;44860;53.020;6.738;2023-07-22T07:31:13;15.50;99.90
59075;DHT22;44860;53.020;6.738;2023-07-22T07:33:39;15.60;99.90
59075;DHT22;44860;53.020;6.738;2023-07-22T07:36:05;15.60;99.90
59075;DHT22;44860;53.020;6.738;2023-07-22T07:38:31;15.70;99.90
59075;DHT22;44860;53.020;6.738;2023-07-22T07:40:58;15.70;99.90
59075;DHT22;44860;53.020;6.738;2023-07-22T07:43:25;15.70;99.90
59075;DHT22;44860;53.020;6.738;2023-07-22T07:45:50;15.80;99.90
59075;DHT22;44860;53.020;6.738;2023-07-22T07:48:36;15.80;99.90
59075;DHT22;44860;53.020;6.738;2023-07-22T07:51:02;15.90;99.90
59075;DHT22;44860;53.020;6.738;2023-07-22T07:53:28;15.90;99.90
59075;DHT22;44860;53.020;6.738;2023-07-22T07:55:54;16.00;99.90
59075;DHT22;44860;53.020;6.738;2023-07-22T07:58:19;16.10;99.90
59075;DHT22;44860;53.020;6.738;2023-07-22T08:00:45;16.20;99.90
59075;DHT22;44860;53.020;6.738;2023-07-22T08:03:11;16.30;99.90
59075;DHT22;44860;53.020;6.738;2023-07-22T08:05:37;16.40;99.90
59075;DHT22;44860;53.020;6.738;2023-07-22T08:08:02;16.50;99.90
59075;DHT22;44860;53.020;6.738;2023-07-22T08:10:28;16.50;99.90
59075;DHT22;44860;53.020;6.738;2023-07-22T08:12:54;16.60;99.90
59075;DHT22;44860;53.020;6.738;2023-07-22T08:15:20;16.70;99.90
59075;DHT22;44860;53.020;6.738;2023-07-22T08:17:45;16.70;99.90
59075;DHT22;44860;53.020;6.738;2023-07-22T08:20:11;16.80;99.90
59075;DHT22;44860;53.020;6.738;2023-07-22T08:22:37;16.90;99.90
59075;DHT22;44860;53.020;6.738;2023-07-22T08:25:03;17.00;99.90
59075;DHT22;44860;53.020;6.738;2023-07-22T08:27:28;17.00;99.90
59075;DHT22;44860;53.020;6.738;2023-07-22T08:29:54;17.10;99.90
59075;DHT22;44860;53.020;6.738;2023-07-22T08:32:20;17.20;99.90
59075;DHT22;44860;53.020;6.738;2023-07-22T08:34:45;17.30;99.90
59075;DHT22;44860;53.020;6.738;2023-07-22T08:37:11;17.30;99.90
59075;DHT22;44860;53.020;6.738;2023-07-22T08:39:37;17.40;99.90
59075;DHT22;44860;53.020;6.738;2023-07-22T08:42:04;17.50;99.90
59075;DHT22;44860;53.020;6.738;2023-07-22T08:44:33;17.50;99.90
59075;DHT22;44860;53.020;6.738;2023-07-22T08:47:02;17.60;99.90
59075;DHT22;44860;53.020;6.738;2023-07-22T08:49:31;17.60;99.90
59075;DHT22;44860;53.020;6.738;2023-07-22T08:51:59;17.60;99.90
59075;DHT22;44860;53.020;6.738;2023-07-22T08:54:25;17.60;99.90
59075;DHT22;44860;53.020;6.738;2023-07-22T08:56:51;17.70;99.90
59075;DHT22;44860;53.020;6.738;2023-07-22T08:59:18;17.70;99.90
59075;DHT22;44860;53.020;6.738;2023-07-22T09:01:45;17.70;99.90
59075;DHT22;44860;53.020;6.738;2023-07-22T09:04:11;17.70;99.90
59075;DHT22;44860;53.020;6.738;2023-07-22T09:06:37;17.70;99.90
59075;DHT22;44860;53.020;6.738;2023-07-22T09:09:03;17.80;99.90
59075;DHT22;44860;53.020;6.738;2023-07-22T09:11:34;17.80;99.90
59075;DHT22;44860;53.020;6.738;2023-07-22T09:14:02;17.80;99.90
59075;DHT22;44860;53.020;6.738;2023-07-22T09:16:28;17.80;99.90
59075;DHT22;44860;53.020;6.738;2023-07-22T09:18:57;17.80;99.90
59075;DHT22;44860;53.020;6.738;2023-07-22T09:21:23;17.80;99.90
59075;DHT22;44860;53.020;6.738;2023-07-22T09:23:48;17.80;99.90
59075;DHT22;44860;53.020;6.738;2023-07-22T09:26:16;17.80;99.90
59075;DHT22;44860;53.020;6.738;2023-07-22T09:31:13;17.80;99.90
59075;DHT22;44860;53.020;6.738;2023-07-22T09:33:39;17.70;99.90
59075;DHT22;44860;53.020;6.738;2023-07-22T09:36:05;17.70;99.90
59075;DHT22;44860;53.020;6.738;2023-07-22T09:38:30;17.70;99.90
59075;DHT22;44860;53.020;6.738;2023-07-22T09:40:56;17.60;99.90
59075;DHT22;44860;53.020;6.738;2023-07-22T09:43:23;17.60;99.90
59075;DHT22;44860;53.020;6.738;2023-07-22T09:45:50;17.60;99.90
59075;DHT22;44860;53.020;6.738;2023-07-22T09:48:16;17.70;99.90
59075;DHT22;44860;53.020;6.738;2023-07-22T09:50:41;17.60;99.90
59075;DHT22;44860;53.020;6.738;2023-07-22T09:53:07;17.70;99.90
59075;DHT22;44860;53.020;6.738;2023-07-22T09:55:33;17.70;99.90
59075;DHT22;44860;53.020;6.738;2023-07-22T09:58:03;17.70;99.90
59075;DHT22;44860;53.020;6.738;2023-07-22T10:00:30;17.70;99.90
59075;DHT22;44860;53.020;6.738;2023-07-22T10:02:57;17.70;99.90
59075;DHT22;44860;53.020;6.738;2023-07-22T10:05:25;17.80;99.90
59075;DHT22;44860;53.020;6.738;2023-07-22T10:07:56;17.80;99.90
59075;DHT22;44860;53.020;6.738;2023-07-22T10:10:27;17.80;99.90
59075;DHT22;44860;53.020;6.738;2023-07-22T10:12:55;17.80;99.90
59075;DHT22;44860;53.020;6.738;2023-07-22T10:15:25;17.80;99.90
59075;DHT22;44860;53.020;6.738;2023-07-22T10:17:51;17.90;99.90
59075;DHT22;44860;53.020;6.738;2023-07-22T10:20:19;17.90;99.90
59075;DHT22;44860;53.020;6.738;2023-07-22T10:22:46;17.90;99.90
59075;DHT22;44860;53.020;6.738;2023-07-22T10:25:15;17.90;99.90
59075;DHT22;44860;53.020;6.738;2023-07-22T10:27:42;17.90;99.90
59075;DHT22;44860;53.020;6.738;2023-07-22T10:30:17;17.90;99.90
59075;DHT22;44860;53.020;6.738;2023-07-22T10:32:48;17.90;99.90
59075;DHT22;44860;53.020;6.738;2023-07-22T10:38:17;17.90;99.90
59075;DHT22;44860;53.020;6.738;2023-07-22T10:40:55;17.90;99.90
59075;DHT22;44860;53.020;6.738;2023-07-22T10:43:27;17.90;99.90
59075;DHT22;44860;53.020;6.738;2023-07-22T10:45:55;18.00;99.90
59075;DHT22;44860;53.020;6.738;2023-07-22T10:48:26;18.00;99.90
59075;DHT22;44860;53.020;6.738;2023-07-22T10:50:54;18.00;99.90
59075;DHT22;44860;53.020;6.738;2023-07-22T10:59:16;17.90;99.90
59075;DHT22;44860;53.020;6.738;2023-07-22T11:01:25;17.90;99.90
59075;DHT22;44860;53.020;6.738;2023-07-22T11:04:10;17.90;99.90
59075;DHT22;44860;53.020;6.738;2023-07-22T11:06:38;17.90;99.90
59075;DHT22;44860;53.020;6.738;2023-07-22T11:09:05;17.80;99.90
59075;DHT22;44860;53.020;6.738;2023-07-22T11:11:38;17.90;99.90
59075;DHT22;44860;53.020;6.738;2023-07-22T11:14:18;17.80;99.90
59075;DHT22;44860;53.020;6.738;2023-07-22T11:16:46;17.80;99.90
59075;DHT22;44860;53.020;6.738;2023-07-22T11:19:13;17.80;99.90
59075;DHT22;44860;53.020;6.738;2023-07-22T11:21:40;17.70;99.90
59075;DHT22;44860;53.020;6.738;2023-07-22T11:24:06;17.60;99.90
59075;DHT22;44860;53.020;6.738;2023-07-22T11:26:33;17.50;99.90
59075;DHT22;44860;53.020;6.738;2023-07-22T11:29:00;17.50;99.90
59075;DHT22;44860;53.020;6.738;2023-07-22T11:31:34;17.40;99.90
59075;DHT22;44860;53.020;6.738;2023-07-22T11:34:05;17.40;99.90
59075;DHT22;44860;53.020;6.738;2023-07-22T11:36:31;17.30;99.90
59075;DHT22;44860;53.020;6.738;2023-07-22T11:39:05;17.30;99.90
59075;DHT22;44860;53.020;6.738;2023-07-22T11:41:32;17.20;99.90
59075;DHT22;44860;53.020;6.738;2023-07-22T11:43:59;17.10;99.90
59075;DHT22;44860;53.020;6.738;2023-07-22T11:46:26;17.10;99.90
59075;DHT22;44860;53.020;6.738;2023-07-22T11:48:52;17.10;99.90
59075;DHT22;44860;53.020;6.738;2023-07-22T11:51:20;17.00;99.90
59075;DHT22;44860;53.020;6.738;2023-07-22T11:53:50;17.00;99.90
59075;DHT22;44860;53.020;6.738;2023-07-22T11:56:24;17.00;99.90
59075;DHT22;44860;53.020;6.738;2023-07-22T11:58:54;16.90;99.90
59075;DHT22;44860;53.020;6.738;2023-07-22T12:01:20;16.90;99.90
59075;DHT22;44860;53.020;6.738;2023-07-22T12:03:46;16.80;99.90
59075;DHT22;44860;53.020;6.738;2023-07-22T12:06:12;16.80;99.90
59075;DHT22;44860;53.020;6.738;2023-07-22T12:08:46;16.80;99.90
59075;DHT22;44860;53.020;6.738;2023-07-22T12:11:16;16.80;99.90
59075;DHT22;44860;53.020;6.738;2023-07-22T12:13:42;16.80;99.90
59075;DHT22;44860;53.020;6.738;2023-07-22T12:16:12;16.80;99.90
59075;DHT22;44860;53.020;6.738;2023-07-22T12:18:45;16.80;99.90
59075;DHT22;44860;53.020;6.738;2023-07-22T12:21:11;16.80;99.90
59075;DHT22;44860;53.020;6.738;2023-07-22T12:23:37;16.70;99.90
59075;DHT22;44860;53.020;6.738;2023-07-22T12:26:06;16.70;99.90
59075;DHT22;44860;53.020;6.738;2023-07-22T12:28:32;16.70;99.90
59075;DHT22;44860;53.020;6.738;2023-07-22T12:30:58;16.70;99.90
59075;DHT22;44860;53.020;6.738;2023-07-22T12:33:27;16.70;99.90
59075;DHT22;44860;53.020;6.738;2023-07-22T12:35:54;16.70;99.90
59075;DHT22;44860;53.020;6.738;2023-07-22T12:38:20;16.70;99.90
59075;DHT22;44860;53.020;6.738;2023-07-22T12:40:46;16.70;99.90
59075;DHT22;44860;53.020;6.738;2023-07-22T12:43:12;16.70;99.90
59075;DHT22;44860;53.020;6.738;2023-07-22T12:45:38;16.60;99.90
59075;DHT22;44860;53.020;6.738;2023-07-22T12:48:03;16.60;99.90
59075;DHT22;44860;53.020;6.738;2023-07-22T12:50:31;16.60;99.90
59075;DHT22;44860;53.020;6.738;2023-07-22T12:53:01;16.60;99.90
59075;DHT22;44860;53.020;6.738;2023-07-22T12:55:27;16.60;99.90
59075;DHT22;44860;53.020;6.738;2023-07-22T12:57:53;16.60;99.90
59075;DHT22;44860;53.020;6.738;2023-07-22T13:00:19;16.60;99.90
59075;DHT22;44860;53.020;6.738;2023-07-22T13:02:44;16.60;99.90
59075;DHT22;44860;53.020;6.738;2023-07-22T13:05:10;16.60;99.90
59075;DHT22;44860;53.020;6.738;2023-07-22T13:07:36;16.60;99.90
59075;DHT22;44860;53.020;6.738;2023-07-22T13:10:03;16.60;99.90
59075;DHT22;44860;53.020;6.738;2023-07-22T13:12:32;16.60;99.90
59075;DHT22;44860;53.020;6.738;2023-07-22T13:14:58;16.60;99.90
59075;DHT22;44860;53.020;6.738;2023-07-22T13:17:23;16.60;99.90
59075;DHT22;44860;53.020;6.738;2023-07-22T13:19:49;16.60;99.90
59075;DHT22;44860;53.020;6.738;2023-07-22T13:22:15;16.60;99.90
59075;DHT22;44860;53.020;6.738;2023-07-22T13:24:40;16.60;99.90
59075;DHT22;44860;53.020;6.738;2023-07-22T13:27:06;16.60;99.90
59075;DHT22;44860;53.020;6.738;2023-07-22T13:29:33;16.60;99.90
59075;DHT22;44860;53.020;6.738;2023-07-22T13:31:58;16.60;99.90
59075;DHT22;44860;53.020;6.738;2023-07-22T13:34:24;16.60;99.90
59075;DHT22;44860;53.020;6.738;2023-07-22T13:36:51;16.60;99.90
59075;DHT22;44860;53.020;6.738;2023-07-22T13:39:16;16.60;99.90
59075;DHT22;44860;53.020;6.738;2023-07-22T13:41:42;16.50;99.90
59075;DHT22;44860;53.020;6.738;2023-07-22T13:44:08;16.50;99.90
59075;DHT22;44860;53.020;6.738;2023-07-22T13:46:33;16.50;99.90
59075;DHT22;44860;53.020;6.738;2023-07-22T13:48:59;16.50;99.90
59075;DHT22;44860;53.020;6.738;2023-07-22T13:51:25;16.50;99.90
59075;DHT22;44860;53.020;6.738;2023-07-22T13:53:50;16.50;99.90
59075;DHT22;44860;53.020;6.738;2023-07-22T13:56:17;16.60;99.90
59075;DHT22;44860;53.020;6.738;2023-07-22T13:58:43;16.60;99.90
59075;DHT22;44860;53.020;6.738;2023-07-22T14:01:09;16.60;99.90
59075;DHT22;44860;53.020;6.738;2023-07-22T14:03:34;16.60;99.90
59075;DHT22;44860;53.020;6.738;2023-07-22T14:06:00;16.70;99.90
59075;DHT22;44860;53.020;6.738;2023-07-22T14:08:26;16.70;99.90
59075;DHT22;44860;53.020;6.738;2023-07-22T14:10:51;16.80;99.90
59075;DHT22;44860;53.020;6.738;2023-07-22T14:13:18;16.80;99.90
59075;DHT22;44860;53.020;6.738;2023-07-22T14:15:43;16.90;99.90
59075;DHT22;44860;53.020;6.738;2023-07-22T14:18:09;16.90;99.90
59075;DHT22;44860;53.020;6.738;2023-07-22T14:20:35;17.00;99.90
59075;DHT22;44860;53.020;6.738;2023-07-22T14:23:01;17.10;99.90
59075;DHT22;44860;53.020;6.738;2023-07-22T14:25:26;17.10;99.90
59075;DHT22;44860;53.020;6.738;2023-07-22T14:27:52;17.20;99.90
59075;DHT22;44860;53.020;6.738;2023-07-22T14:30:18;17.20;99.90
59075;DHT22;44860;53.020;6.738;2023-07-22T14:32:44;17.30;99.90
59075;DHT22;44860;53.020;6.738;2023-07-22T14:35:09;17.30;99.90
59075;DHT22;44860;53.020;6.738;2023-07-22T14:37:36;17.30;99.90
59075;DHT22;44860;53.020;6.738;2023-07-22T14:40:02;17.30;99.90
59075;DHT22;44860;53.020;6.738;2023-07-22T14:42:30;17.30;99.90
59075;DHT22;44860;53.020;6.738;2023-07-22T14:44:56;17.30;99.90
59075;DHT22;44860;53.020;6.738;2023-07-22T14:47:21;17.40;99.90
59075;DHT22;44860;53.020;6.738;2023-07-22T14:49:47;17.50;99.90
59075;DHT22;44860;53.020;6.738;2023-07-22T14:52:13;17.40;99.90
59075;DHT22;44860;53.020;6.738;2023-07-22T14:54:38;17.50;99.90
59075;DHT22;44860;53.020;6.738;2023-07-22T14:57:04;17.50;99.90
59075;DHT22;44860;53.020;6.738;2023-07-22T14:59:30;17.50;99.90
59075;DHT22;44860;53.020;6.738;2023-07-22T15:01:56;17.50;99.90
59075;DHT22;44860;53.020;6.738;2023-07-22T15:04:25;17.60;99.90
59075;DHT22;44860;53.020;6.738;2023-07-22T15:06:50;17.60;99.90
59075;DHT22;44860;53.020;6.738;2023-07-22T15:09:16;17.60;99.90
59075;DHT22;44860;53.020;6.738;2023-07-22T15:11:43;17.60;99.90
59075;DHT22;44860;53.020;6.738;2023-07-22T15:14:09;17.60;99.90
59075;DHT22;44860;53.020;6.738;2023-07-22T15:16:35;17.50;99.90
59075;DHT22;44860;53.020;6.738;2023-07-22T15:19:01;17.50;99.90
59075;DHT22;44860;53.020;6.738;2023-07-22T15:21:27;17.50;99.90
59075;DHT22;44860;53.020;6.738;2023-07-22T15:23:53;17.40;99.90
59075;DHT22;44860;53.020;6.738;2023-07-22T15:26:19;17.40;99.90
59075;DHT22;44860;53.020;6.738;2023-07-22T15:28:45;17.30;99.90
59075;DHT22;44860;53.020;6.738;2023-07-22T15:31:12;17.30;99.90
59075;DHT22;44860;53.020;6.738;2023-07-22T15:33:37;17.20;99.90
59075;DHT22;44860;53.020;6.738;2023-07-22T15:36:04;17.20;99.90
59075;DHT22;44860;53.020;6.738;2023-07-22T15:38:29;17.20;99.90